Time;durP1;ratioP1;P1;durP2;ratioP2;P2;SDS_P1;SDS_P2;PMS_P1;PMS_P2;Temp;Humidity;BMP_temperature;BMP_pressure;BME280_temperature;BME280_humidity;BME280_pressure;Samples;Min_cycle;Max_cycle;Signal;HPM_P1;HPM_P2
2021/05/31 00:01:51;;;;;;;1.75;1.65;;;15.60;79.00;;;;;;5076660;28;20047;-67
2021/05/31 00:04:16;;;;;;;2.00;1.85;;;15.60;79.00;;;;;;5076843;28;20392;-67
2021/05/31 00:06:49;;;;;;;2.30;1.75;;;15.60;79.10;;;;;;5076671;28;20029;-67
2021/05/31 00:09:15;;;;;;;2.05;1.85;;;15.60;79.30;;;;;;5076763;28;20100;-67
2021/05/31 00:11:41;;;;;;;1.73;1.63;;;15.60;79.40;;;;;;5076436;28;20784;-67
2021/05/31 00:14:06;;;;;;;2.58;1.90;;;15.60;79.20;;;;;;5075530;28;20056;-67
2021/05/31 00:16:32;;;;;;;1.63;1.52;;;15.60;79.10;;;;;;5076687;28;20021;-67
2021/05/31 00:18:58;;;;;;;1.90;1.80;;;15.60;79.10;;;;;;5076668;28;20016;-67
2021/05/31 00:21:24;;;;;;;1.95;1.83;;;15.60;78.80;;;;;;5074425;28;20063;-67
2021/05/31 00:23:50;;;;;;;1.75;1.65;;;15.50;78.60;;;;;;5076411;28;20020;-67
2021/05/31 00:26:17;;;;;;;1.67;1.58;;;15.50;78.60;;;;;;5076449;28;20033;-67
2021/05/31 00:28:44;;;;;;;1.92;1.83;;;15.50;78.40;;;;;;5076263;28;20020;-67
2021/05/31 00:31:11;;;;;;;1.75;1.65;;;15.50;78.30;;;;;;5076236;28;20052;-68
2021/05/31 00:33:38;;;;;;;1.52;1.42;;;15.50;78.10;;;;;;5075309;28;20024;-68
2021/05/31 00:36:04;;;;;;;1.80;1.70;;;15.50;78.00;;;;;;5074676;28;20025;-68
2021/05/31 00:38:29;;;;;;;1.90;1.80;;;15.50;77.90;;;;;;5075940;28;20365;-68
2021/05/31 00:40:55;;;;;;;1.63;1.52;;;15.50;78.20;;;;;;5076069;28;20032;-68
2021/05/31 00:43:21;;;;;;;2.50;1.67;;;15.50;78.00;;;;;;5075896;28;20028;-68
2021/05/31 00:45:48;;;;;;;1.85;1.75;;;15.50;77.80;;;;;;5075974;28;20081;-68
2021/05/31 00:48:15;;;;;;;1.60;1.50;;;15.60;77.70;;;;;;5075797;28;20052;-68
2021/05/31 00:50:43;;;;;;;2.08;1.88;;;15.60;77.40;;;;;;5075895;28;20389;-68
2021/05/31 00:53:10;;;;;;;2.13;1.70;;;15.60;77.20;;;;;;5075952;28;20097;-68
2021/05/31 00:55:36;;;;;;;1.92;1.83;;;15.60;77.20;;;;;;5075739;28;20505;-68
2021/05/31 00:58:03;;;;;;;1.90;1.70;;;15.60;77.20;;;;;;5075447;28;20024;-68
2021/05/31 01:00:29;;;;;;;2.25;1.80;;;15.60;77.20;;;;;;5075845;28;20024;-68
2021/05/31 01:02:56;;;;;;;2.28;1.52;;;15.60;76.90;;;;;;5075184;28;20377;-68
2021/05/31 01:05:22;;;;;;;1.60;1.50;;;15.60;76.70;;;;;;5074433;28;20020;-68
2021/05/31 01:07:53;;;;;;;1.60;1.50;;;15.60;76.80;;;;;;5055451;28;20056;-68
2021/05/31 01:10:29;;;;;;;1.50;1.40;;;15.60;77.00;;;;;;5055606;28;20021;-68
2021/05/31 01:13:10;;;;;;;2.00;1.73;;;15.60;76.50;;;;;;5070166;28;20021;-68
2021/05/31 01:15:40;;;;;;;;;;;15.70;76.70;;;;;;5075897;28;20035;-68
2021/05/31 01:18:19;;;;;;;3.33;2.13;;;15.60;76.90;;;;;;5075436;28;19934;-68
2021/05/31 01:20:51;;;;;;;1.60;1.50;;;15.60;77.20;;;;;;5075475;28;20025;-68
2021/05/31 01:23:18;;;;;;;2.08;1.98;;;15.60;77.10;;;;;;5075451;28;20032;-68
2021/05/31 01:25:53;;;;;;;1.58;1.48;;;15.60;77.10;;;;;;5064700;28;20104;-68
2021/05/31 01:28:26;;;;;;;2.90;1.90;;;15.60;76.80;;;;;;5056556;28;20112;-68
2021/05/31 01:30:54;;;;;;;2.08;1.70;;;15.70;77.00;;;;;;5075205;28;20027;-68
2021/05/31 01:33:23;;;;;;;1.88;1.70;;;15.60;76.60;;;;;;5074811;28;20029;-68
2021/05/31 01:35:50;;;;;;;1.95;1.85;;;15.60;77.10;;;;;;5074993;28;20021;-68
2021/05/31 01:38:18;;;;;;;2.22;1.90;;;15.60;77.30;;;;;;5055118;28;20024;-68
2021/05/31 01:40:46;;;;;;;1.67;1.58;;;15.60;77.60;;;;;;5055422;28;20099;-68
2021/05/31 01:43:12;;;;;;;1.70;1.60;;;15.60;77.80;;;;;;5074535;28;20522;-68
2021/05/31 01:45:38;;;;;;;2.15;1.80;;;15.50;77.90;;;;;;5074696;28;20024;-67
2021/05/31 01:48:05;;;;;;;1.70;1.60;;;15.60;78.00;;;;;;5074549;28;20510;-67
2021/05/31 01:50:31;;;;;;;1.70;1.55;;;15.50;78.00;;;;;;5074651;28;20461;-67
2021/05/31 01:52:58;;;;;;;1.73;1.63;;;15.60;77.60;;;;;;5074794;28;20052;-67
2021/05/31 01:55:24;;;;;;;1.88;1.70;;;15.60;77.80;;;;;;5074685;28;20050;-67
2021/05/31 01:57:51;;;;;;;2.85;1.80;;;15.60;78.40;;;;;;5074585;28;20059;-67
2021/05/31 02:00:18;;;;;;;2.08;1.92;;;15.60;78.60;;;;;;5074611;28;20024;-67
2021/05/31 02:02:44;;;;;;;1.80;1.70;;;15.60;78.50;;;;;;5073725;28;20013;-67
2021/05/31 02:05:11;;;;;;;2.33;2.10;;;15.50;78.40;;;;;;5074508;28;20052;-67
2021/05/31 02:07:39;;;;;;;2.38;1.98;;;15.50;78.30;;;;;;5074391;28;20021;-67
2021/05/31 02:10:09;;;;;;;2.33;1.88;;;15.60;78.40;;;;;;5074279;28;20449;-67
2021/05/31 02:12:52;;;;;;;3.80;1.60;;;15.50;78.20;;;;;;5074378;28;20480;-67
2021/05/31 02:15:26;;;;;;;2.13;1.95;;;15.50;78.20;;;;;;5073818;28;20031;-67
2021/05/31 02:18:13;;;;;;;3.35;1.80;;;15.50;78.50;;;;;;5074218;28;20419;-67
2021/05/31 02:20:41;;;;;;;1.88;1.73;;;15.50;78.50;;;;;;5073981;28;20027;-67
2021/05/31 02:23:11;;;;;;;3.42;1.95;;;15.60;79.00;;;;;;5057614;28;20025;-67
2021/05/31 02:25:37;;;;;;;2.13;1.80;;;15.60;79.00;;;;;;5054115;28;20108;-67
2021/05/31 02:28:05;;;;;;;2.75;1.90;;;15.60;78.80;;;;;;5054087;28;20041;-67
2021/05/31 02:30:32;;;;;;;1.98;1.83;;;15.60;78.90;;;;;;5053930;28;20491;-67
2021/05/31 02:33:00;;;;;;;3.03;1.85;;;15.60;78.60;;;;;;5069482;28;20380;-67
2021/05/31 02:35:28;;;;;;;2.67;1.88;;;15.60;78.60;;;;;;5073942;28;20096;-67
2021/05/31 02:37:54;;;;;;;2.17;1.98;;;15.60;78.70;;;;;;5073607;28;20047;-67
2021/05/31 02:40:21;;;;;;;2.10;1.90;;;15.60;78.90;;;;;;5073452;28;20021;-67
2021/05/31 02:43:09;;;;;;;4.25;2.20;;;15.60;79.10;;;;;;5073587;28;20033;-67
2021/05/31 02:45:34;;;;;;;3.00;1.88;;;15.70;79.00;;;;;;5073799;28;20440;-67
2021/05/31 02:48:01;;;;;;;1.85;1.65;;;15.70;79.40;;;;;;5073504;28;20076;-67
2021/05/31 02:50:27;;;;;;;2.40;2.20;;;15.70;79.20;;;;;;5073609;28;20024;-67
2021/05/31 02:52:57;;;;;;;5.22;2.08;;;15.80;79.40;;;;;;5073559;28;20017;-67
2021/05/31 02:55:25;;;;;;;1.98;1.88;;;15.80;79.20;;;;;;5073391;28;20415;-67
2021/05/31 02:57:51;;;;;;;2.17;1.95;;;15.80;79.20;;;;;;5073431;28;20051;-67
2021/05/31 03:00:20;;;;;;;3.53;2.38;;;15.80;80.00;;;;;;5073568;28;20024;-67
2021/05/31 03:02:46;;;;;;;2.65;1.90;;;15.80;79.40;;;;;;5072919;28;20427;-67
2021/05/31 03:05:14;;;;;;;2.58;1.98;;;15.80;79.00;;;;;;5073271;28;20036;-67
2021/05/31 03:07:40;;;;;;;2.75;2.00;;;15.80;79.10;;;;;;5071994;28;20099;-67
2021/05/31 03:10:07;;;;;;;2.40;2.20;;;15.70;79.20;;;;;;5073198;28;20031;-67
2021/05/31 03:12:33;;;;;;;2.20;2.00;;;15.80;79.40;;;;;;5073103;28;20522;-67
2021/05/31 03:14:59;;;;;;;2.17;2.03;;;15.70;79.20;;;;;;5073334;28;20131;-67
2021/05/31 03:17:25;;;;;;;3.03;2.67;;;15.70;79.10;;;;;;5073283;28;20543;-67
2021/05/31 03:19:50;;;;;;;3.15;2.20;;;15.70;78.80;;;;;;5073076;28;20491;-67
2021/05/31 03:22:16;;;;;;;2.30;2.10;;;15.70;78.90;;;;;;5073155;28;20028;-67
2021/05/31 03:24:42;;;;;;;2.47;2.28;;;15.70;79.00;;;;;;5073104;28;20032;-67
2021/05/31 03:27:08;;;;;;;4.05;2.55;;;15.70;79.00;;;;;;5056579;28;20510;-67
2021/05/31 03:29:34;;;;;;;2.22;2.05;;;15.70;79.00;;;;;;5072955;28;20052;-67
2021/05/31 03:32:01;;;;;;;2.30;2.10;;;15.70;78.90;;;;;;5072508;28;20082;-67
2021/05/31 03:34:27;;;;;;;2.40;2.20;;;15.70;78.90;;;;;;5072995;28;20020;-67
2021/05/31 03:36:52;;;;;;;3.28;2.53;;;15.70;78.60;;;;;;5073041;28;20070;-67
2021/05/31 03:39:18;;;;;;;4.30;2.30;;;15.70;78.60;;;;;;5073006;28;20021;-67
2021/05/31 03:41:44;;;;;;;2.72;2.50;;;15.70;78.80;;;;;;5072900;28;20492;-67
2021/05/31 03:44:09;;;;;;;2.00;1.90;;;15.70;78.60;;;;;;5072732;28;20030;-67
2021/05/31 03:46:36;;;;;;;2.53;2.33;;;15.70;78.80;;;;;;5072745;28;20392;-67
2021/05/31 03:49:01;;;;;;;2.60;2.40;;;15.70;78.80;;;;;;5072850;28;20063;-67
2021/05/31 03:51:27;;;;;;;2.47;2.00;;;15.70;78.80;;;;;;5072887;28;20492;-67
2021/05/31 03:53:53;;;;;;;3.72;2.15;;;15.70;78.80;;;;;;5071552;28;20056;-67
2021/05/31 03:56:18;;;;;;;1.90;1.80;;;15.70;78.50;;;;;;5072884;28;20025;-67
2021/05/31 03:58:45;;;;;;;3.17;2.33;;;15.70;78.50;;;;;;5072883;28;20077;-67
2021/05/31 04:01:13;;;;;;;3.95;2.35;;;15.70;78.50;;;;;;5072320;28;20032;-67
2021/05/31 04:03:39;;;;;;;3.22;2.30;;;15.70;78.70;;;;;;5072876;28;20028;-67
2021/05/31 04:11:36;;;;;;;2.30;2.10;;;15.70;78.90;;;;;;5072244;28;20115;-67
2021/05/31 04:14:04;;;;;;;2.45;2.22;;;15.80;78.60;;;;;;5072606;28;20484;-67
2021/05/31 04:16:30;;;;;;;2.40;1.98;;;15.80;78.30;;;;;;5072590;28;20070;-67
2021/05/31 04:18:56;;;;;;;2.03;1.92;;;15.70;78.10;;;;;;5072535;28;20024;-67
2021/05/31 04:21:22;;;;;;;2.70;2.20;;;15.70;78.00;;;;;;5071765;28;20029;-67
2021/05/31 04:23:48;;;;;;;2.42;2.22;;;15.70;78.20;;;;;;5072277;28;20412;-67
2021/05/31 04:26:13;;;;;;;4.32;2.38;;;15.70;77.90;;;;;;5072569;28;20036;-67
2021/05/31 04:28:39;;;;;;;2.50;2.30;;;15.70;78.00;;;;;;5072523;28;20106;-67
2021/05/31 04:31:05;;;;;;;4.90;2.40;;;15.70;78.20;;;;;;5072115;28;20419;-67
2021/05/31 04:33:30;;;;;;;1.90;1.80;;;15.70;78.40;;;;;;5072528;28;20036;-67
2021/05/31 04:35:56;;;;;;;2.20;2.00;;;15.70;77.70;;;;;;5072254;28;20013;-67
2021/05/31 04:38:22;;;;;;;2.92;2.08;;;15.80;77.70;;;;;;5075051;28;20021;-67
2021/05/31 04:40:48;;;;;;;1.77;1.52;;;15.80;77.70;;;;;;5074407;28;20380;-67
2021/05/31 04:43:13;;;;;;;2.22;2.00;;;15.80;77.50;;;;;;5076083;28;20029;-67
2021/05/31 04:45:39;;;;;;;2.10;1.75;;;15.80;77.20;;;;;;5074341;28;20028;-67
2021/05/31 04:48:05;;;;;;;2.90;2.42;;;15.80;76.80;;;;;;5075663;28;20045;-67
2021/05/31 04:50:31;;;;;;;2.42;2.22;;;15.80;77.10;;;;;;5075833;28;20078;-67
2021/05/31 04:52:56;;;;;;;2.70;2.22;;;15.80;77.30;;;;;;5075717;28;20424;-67
2021/05/31 04:55:22;;;;;;;2.63;2.33;;;15.80;77.30;;;;;;5075881;28;20070;-67
2021/05/31 04:57:48;;;;;;;2.20;2.00;;;15.80;77.10;;;;;;5075773;28;20487;-67
2021/05/31 05:00:15;;;;;;;2.33;2.13;;;15.70;77.00;;;;;;5075914;28;20029;-67
2021/05/31 05:02:41;;;;;;;2.40;2.20;;;15.70;77.10;;;;;;5075422;28;20032;-67
2021/05/31 05:05:08;;;;;;;2.72;2.15;;;15.70;77.10;;;;;;5075718;28;20024;-67
2021/05/31 05:07:34;;;;;;;2.95;2.65;;;15.70;77.10;;;;;;5074276;28;20028;-67
2021/05/31 05:10:00;;;;;;;2.45;2.17;;;15.70;77.10;;;;;;5075142;28;20133;-67
2021/05/31 05:12:25;;;;;;;2.72;2.35;;;15.70;77.10;;;;;;5075461;28;20017;-67
2021/05/31 05:14:51;;;;;;;2.28;2.08;;;15.60;77.10;;;;;;5075512;28;20108;-67
2021/05/31 05:17:17;;;;;;;3.58;2.35;;;15.60;77.10;;;;;;5075560;28;20056;-67
2021/05/31 05:19:42;;;;;;;2.92;2.70;;;15.60;77.30;;;;;;5075253;28;20013;-67
2021/05/31 05:22:08;;;;;;;3.70;2.70;;;15.60;76.90;;;;;;5072802;28;20028;-67
2021/05/31 05:24:34;;;;;;;4.80;2.67;;;15.60;76.80;;;;;;5075076;28;20024;-67
2021/05/31 05:27:05;;;;;;;2.58;2.22;;;15.70;76.80;;;;;;5071103;28;20024;-67
2021/05/31 05:29:31;;;;;;;2.63;2.05;;;15.70;77.00;;;;;;5070131;28;20098;-67
2021/05/31 05:31:57;;;;;;;2.25;2.05;;;15.70;76.80;;;;;;5075096;28;20387;-67
2021/05/31 05:34:23;;;;;;;3.95;2.00;;;15.70;76.40;;;;;;5080518;28;20017;-67
2021/05/31 05:36:52;;;;;;;2.88;2.30;;;15.70;76.30;;;;;;5067408;28;20142;-67
2021/05/31 05:49:28;;;;;;;3.53;2.50;;;15.60;76.50;;;;;;5066093;28;20052;-56
2021/05/31 05:51:54;;;;;;;2.30;2.10;;;15.60;76.80;;;;;;5067916;28;20086;-52
2021/05/31 05:54:19;;;;;;;2.42;2.22;;;15.50;76.80;;;;;;5068133;28;20031;-53
2021/05/31 05:56:45;;;;;;;2.47;2.28;;;15.50;76.60;;;;;;5062770;28;20392;-54
2021/05/31 05:59:11;;;;;;;1.80;1.70;;;15.50;76.60;;;;;;5059928;28;20024;-56
2021/05/31 06:01:37;;;;;;;2.28;2.08;;;15.50;76.30;;;;;;5063934;28;20032;-56
2021/05/31 06:04:02;;;;;;;5.18;2.75;;;15.50;76.30;;;;;;5065635;28;20036;-64
2021/05/31 06:06:28;;;;;;;3.17;2.35;;;15.50;76.00;;;;;;5063451;28;20078;-61
2021/05/31 06:08:54;;;;;;;3.65;2.28;;;15.50;76.20;;;;;;5062057;28;20043;-62
2021/05/31 06:11:21;;;;;;;2.83;1.90;;;15.50;76.70;;;;;;5066309;28;20047;-64
2021/05/31 06:13:50;;;;;;;3.72;2.40;;;15.50;76.40;;;;;;5065096;28;20144;-63
2021/05/31 06:16:16;;;;;;;2.92;2.20;;;15.50;76.50;;;;;;5066298;28;20024;-66
2021/05/31 06:18:42;;;;;;;2.17;1.98;;;15.50;76.40;;;;;;5066139;28;20027;-65
2021/05/31 06:21:07;;;;;;;2.00;1.88;;;15.50;76.20;;;;;;5066616;28;20039;-64
2021/05/31 06:23:33;;;;;;;2.38;2.00;;;15.50;76.90;;;;;;5067916;28;20032;-65
2021/05/31 06:25:59;;;;;;;2.22;2.03;;;15.60;76.10;;;;;;5068148;28;20024;-63
2021/05/31 06:28:25;;;;;;;2.58;2.38;;;15.60;75.80;;;;;;5067515;28;20021;-64
2021/05/31 06:30:51;;;;;;;4.57;2.50;;;15.60;75.80;;;;;;5068691;28;20055;-66
2021/05/31 06:33:18;;;;;;;2.83;2.38;;;15.60;76.00;;;;;;5066094;28;20457;-64
2021/05/31 06:35:45;;;;;;;2.80;2.60;;;15.60;76.50;;;;;;5060948;28;20108;-64
2021/05/31 06:38:11;;;;;;;2.42;2.22;;;15.50;76.20;;;;;;5064525;28;20031;-63
2021/05/31 06:40:37;;;;;;;2.47;2.28;;;15.50;76.10;;;;;;5061249;28;20119;-64
2021/05/31 06:43:03;;;;;;;2.45;2.25;;;15.50;76.40;;;;;;5065239;28;20020;-65
2021/05/31 06:45:31;;;;;;;5.18;2.88;;;15.50;76.50;;;;;;5061665;28;20092;-66
2021/05/31 06:47:59;;;;;;;3.88;2.78;;;15.50;76.60;;;;;;5066056;28;20736;-65
2021/05/31 06:50:27;;;;;;;2.58;2.38;;;15.50;76.60;;;;;;5063253;28;20032;-60
2021/05/31 06:52:53;;;;;;;2.85;2.65;;;15.50;76.80;;;;;;5060969;28;20044;-62
2021/05/31 06:55:21;;;;;;;2.90;2.63;;;15.50;76.80;;;;;;5066508;28;21277;-67
2021/05/31 06:57:49;;;;;;;3.60;2.83;;;15.50;76.90;;;;;;5065628;28;20032;-67
2021/05/31 07:00:17;;;;;;;3.20;2.78;;;15.50;76.90;;;;;;5062103;28;20039;-63
2021/05/31 07:02:43;;;;;;;3.22;2.90;;;15.50;76.60;;;;;;5060443;28;20033;-62
2021/05/31 07:05:10;;;;;;;2.63;2.40;;;15.50;76.60;;;;;;5055941;28;20036;-62
2021/05/31 07:07:37;;;;;;;3.55;2.78;;;15.50;77.10;;;;;;5058593;28;20546;-62
2021/05/31 07:10:07;;;;;;;3.03;2.45;;;15.50;77.20;;;;;;5063975;28;20078;-62
2021/05/31 07:12:33;;;;;;;2.45;2.22;;;15.60;77.30;;;;;;5060793;28;20086;-62
2021/05/31 07:15:03;;;;;;;4.32;2.58;;;15.70;76.90;;;;;;5061000;28;20801;-62
2021/05/31 07:17:30;;;;;;;2.53;2.22;;;15.70;76.60;;;;;;5056106;28;20029;-61
2021/05/31 07:19:56;;;;;;;2.83;2.42;;;15.70;76.40;;;;;;5053218;28;20035;-62
2021/05/31 07:22:22;;;;;;;2.55;2.35;;;15.80;76.20;;;;;;5048991;28;20040;-63
2021/05/31 07:24:49;;;;;;;2.70;2.50;;;15.80;76.10;;;;;;5049685;28;20077;-63
2021/05/31 07:27:15;;;;;;;4.28;2.70;;;16.00;76.00;;;;;;5056691;28;20028;-62
2021/05/31 07:29:41;;;;;;;2.70;2.50;;;16.00;75.50;;;;;;5055351;28;20388;-62
2021/05/31 07:32:07;;;;;;;4.25;2.33;;;16.10;75.60;;;;;;5064173;28;20039;-62
2021/05/31 07:34:33;;;;;;;2.47;2.28;;;16.20;75.50;;;;;;5061874;28;20032;-62
2021/05/31 07:36:59;;;;;;;2.17;1.92;;;16.20;75.00;;;;;;5057321;28;20103;-61
2021/05/31 07:39:25;;;;;;;3.47;2.42;;;16.30;74.40;;;;;;5060764;28;20032;-63
2021/05/31 07:41:52;;;;;;;2.03;1.90;;;16.30;73.80;;;;;;5061364;28;20032;-62
2021/05/31 07:44:18;;;;;;;2.45;2.08;;;16.40;73.70;;;;;;5064057;28;20025;-61
2021/05/31 07:46:43;;;;;;;2.53;2.30;;;16.40;73.70;;;;;;5058804;28;20064;-60
2021/05/31 07:49:09;;;;;;;2.33;2.13;;;16.40;73.90;;;;;;5055955;28;20120;-62
2021/05/31 07:51:40;;;;;;;2.53;2.17;;;16.50;73.90;;;;;;5060525;28;20070;-61
2021/05/31 07:54:06;;;;;;;2.55;2.35;;;16.50;73.80;;;;;;5060875;28;20036;-62
2021/05/31 07:56:32;;;;;;;2.40;2.20;;;16.50;73.60;;;;;;5059849;28;20029;-61
2021/05/31 07:58:58;;;;;;;2.00;1.80;;;16.60;73.50;;;;;;5056736;28;20025;-67
2021/05/31 08:01:24;;;;;;;1.77;1.63;;;16.60;72.90;;;;;;5064011;28;20040;-67
2021/05/31 08:03:50;;;;;;;3.33;2.15;;;16.60;72.90;;;;;;5060740;28;20070;-60
2021/05/31 08:06:16;;;;;;;2.03;1.90;;;16.60;72.40;;;;;;5060337;28;20499;-59
2021/05/31 08:08:42;;;;;;;2.00;1.90;;;16.60;72.20;;;;;;5060234;28;20039;-60
2021/05/31 08:11:09;;;;;;;2.03;1.92;;;16.60;72.40;;;;;;5058452;28;20021;-61
2021/05/31 08:13:35;;;;;;;2.30;1.98;;;16.60;72.30;;;;;;5068739;28;20028;-59
2021/05/31 08:16:02;;;;;;;2.47;1.90;;;16.60;72.00;;;;;;5066519;28;20166;-61
2021/05/31 08:18:28;;;;;;;2.50;2.10;;;16.60;71.90;;;;;;5050410;28;20024;-62
2021/05/31 08:20:53;;;;;;;2.40;1.80;;;16.60;71.70;;;;;;5064802;28;20040;-62
2021/05/31 08:23:19;;;;;;;2.08;1.58;;;16.50;71.60;;;;;;5065323;28;20107;-60
2021/05/31 08:25:46;;;;;;;3.30;2.10;;;16.50;72.10;;;;;;5063895;28;20037;-62
2021/05/31 08:28:12;;;;;;;1.85;1.75;;;16.50;71.40;;;;;;5063778;28;20036;-58
2021/05/31 08:30:40;;;;;;;1.95;1.85;;;16.50;71.80;;;;;;5065528;28;20036;-59
2021/05/31 08:33:07;;;;;;;2.00;1.90;;;16.50;71.60;;;;;;5057781;28;20044;-61
2021/05/31 08:35:34;;;;;;;2.38;1.90;;;16.50;71.40;;;;;;5067832;28;20058;-60
2021/05/31 08:38:00;;;;;;;2.45;2.25;;;16.40;71.10;;;;;;5068649;28;20078;-61
2021/05/31 08:40:26;;;;;;;2.00;1.90;;;16.40;71.00;;;;;;5070000;28;20069;-61
2021/05/31 08:42:52;;;;;;;1.55;1.45;;;16.40;71.20;;;;;;5063035;28;20844;-60
2021/05/31 08:45:21;;;;;;;2.38;2.08;;;16.40;71.00;;;;;;5062262;28;20115;-61
2021/05/31 08:47:49;;;;;;;1.85;1.75;;;16.30;70.90;;;;;;5065600;28;20036;-63
2021/05/31 08:50:19;;;;;;;1.95;1.85;;;16.30;71.20;;;;;;5070074;28;20571;-63
2021/05/31 08:52:46;;;;;;;2.97;1.80;;;16.30;71.10;;;;;;5061148;28;20385;-63
2021/05/31 08:55:15;;;;;;;2.00;1.90;;;16.30;70.90;;;;;;5060597;28;20029;-62
2021/05/31 08:57:41;;;;;;;2.72;2.08;;;16.30;70.90;;;;;;5055385;28;20037;-61
2021/05/31 09:00:11;;;;;;;2.00;1.90;;;16.30;70.90;;;;;;5061062;28;20020;-60
2021/05/31 09:02:38;;;;;;;2.50;1.70;;;16.30;70.90;;;;;;5062283;28;20036;-60
2021/05/31 09:05:07;;;;;;;1.98;1.80;;;16.30;70.50;;;;;;5059162;28;20029;-61
2021/05/31 09:07:33;;;;;;;2.22;1.80;;;16.30;70.50;;;;;;5061941;28;20502;-61
2021/05/31 09:09:59;;;;;;;2.53;1.92;;;16.30;70.30;;;;;;5065301;28;20043;-60
2021/05/31 09:12:32;;;;;;;1.70;1.60;;;16.30;69.50;;;;;;5061219;28;20017;-62
2021/05/31 09:15:03;;;;;;;1.70;1.60;;;16.30;69.40;;;;;;5062211;28;20618;-64
2021/05/31 09:17:33;;;;;;;;;;;16.30;69.80;;;;;;5065974;28;20396;-63
2021/05/31 09:19:59;;;;;;;1.90;1.80;;;16.30;69.60;;;;;;5062354;28;19916;-64
2021/05/31 09:22:25;;;;;;;1.88;1.73;;;16.30;69.80;;;;;;5061869;28;20025;-63
2021/05/31 09:24:59;;;;;;;1.75;1.65;;;16.40;69.80;;;;;;5057726;28;20036;-62
2021/05/31 09:27:26;;;;;;;1.60;1.50;;;16.40;69.90;;;;;;5063438;28;20123;-62
2021/05/31 09:30:10;;;;;;;3.40;1.90;;;16.50;69.70;;;;;;5061783;28;20021;-62
2021/05/31 09:32:35;;;;;;;2.15;1.63;;;16.60;69.20;;;;;;5061338;28;20673;-61
2021/05/31 09:35:08;;;;;;;2.08;1.77;;;16.60;69.30;;;;;;5066005;28;20024;-63
2021/05/31 09:37:45;;;;;;;1.70;1.60;;;16.70;68.90;;;;;;5057177;28;20028;-66
2021/05/31 09:40:16;;;;;;;2.05;1.88;;;16.80;69.40;;;;;;5066825;28;20052;-61
2021/05/31 09:42:56;;;;;;;1.73;1.65;;;16.90;68.30;;;;;;5066999;28;20048;-66
2021/05/31 09:45:23;;;;;;;2.55;1.67;;;17.00;67.80;;;;;;5059399;28;20557;-66
2021/05/31 09:47:50;;;;;;;1.65;1.55;;;17.10;67.60;;;;;;5064254;28;20526;-60
2021/05/31 09:50:25;;;;;;;1.70;1.50;;;17.20;67.60;;;;;;5065473;28;20088;-63
2021/05/31 09:53:11;;;;;;;1.73;1.63;;;17.30;67.20;;;;;;5064311;28;20032;-63
2021/05/31 09:55:47;;;;;;;2.05;1.58;;;17.30;66.80;;;;;;5060795;28;20127;-62
2021/05/31 09:58:16;;;;;;;1.70;1.60;;;17.30;67.00;;;;;;5066370;28;20037;-62
2021/05/31 10:00:54;;;;;;;1.33;1.23;;;17.40;67.00;;;;;;5059660;28;20021;-60
2021/05/31 10:10:57;;;;;;;1.60;1.40;;;17.70;65.40;;;;;;5063879;28;20024;-61
2021/05/31 10:13:23;;;;;;;1.60;1.13;;;17.80;64.80;;;;;;5065204;28;20017;-61
2021/05/31 10:15:50;;;;;;;1.27;1.20;;;17.70;64.70;;;;;;5061554;28;20035;-62
2021/05/31 10:18:17;;;;;;;1.65;1.10;;;17.80;64.70;;;;;;5066422;28;20044;-61
2021/05/31 10:20:44;;;;;;;1.52;1.42;;;17.80;64.90;;;;;;5061665;28;20029;-62
2021/05/31 10:23:13;;;;;;;2.05;1.60;;;17.80;65.00;;;;;;5054663;28;20067;-62
2021/05/31 10:25:43;;;;;;;1.40;1.30;;;17.70;64.80;;;;;;5062089;28;20066;-61
2021/05/31 10:28:20;;;;;;;1.80;1.60;;;17.70;64.60;;;;;;5064778;28;20047;-61
2021/05/31 10:30:49;;;;;;;1.23;1.23;;;17.70;64.70;;;;;;5066895;28;20036;-62
2021/05/31 10:33:22;;;;;;;2.35;1.50;;;17.70;64.80;;;;;;5062668;28;20029;-62
2021/05/31 10:35:49;;;;;;;1.30;1.30;;;17.70;64.80;;;;;;5066965;28;20111;-61
2021/05/31 10:38:19;;;;;;;1.10;1.10;;;17.70;64.70;;;;;;5066801;28;20043;-62
2021/05/31 10:40:48;;;;;;;1.20;1.20;;;17.70;64.70;;;;;;5062631;28;20044;-62
2021/05/31 10:43:15;;;;;;;1.25;1.23;;;17.70;64.20;;;;;;5059542;28;20043;-61
2021/05/31 10:45:43;;;;;;;1.40;1.30;;;17.70;64.20;;;;;;5060469;28;20025;-62
2021/05/31 10:48:16;;;;;;;1.55;1.45;;;17.80;64.40;;;;;;5060575;28;20040;-62
2021/05/31 10:50:53;;;;;;;1.25;1.25;;;17.80;64.30;;;;;;5065473;28;20017;-62
2021/05/31 10:53:39;;;;;;;2.05;1.58;;;17.80;64.30;;;;;;5061446;28;20119;-61
2021/05/31 10:56:11;;;;;;;1.63;1.52;;;17.80;64.50;;;;;;5054745;28;20032;-62
2021/05/31 10:58:44;;;;;;;1.90;1.80;;;17.80;64.40;;;;;;5062993;28;20085;-62
2021/05/31 11:01:31;;;;;;;1.70;1.60;;;17.70;64.30;;;;;;5059719;28;20032;-61
2021/05/31 11:04:15;;;;;;;1.50;1.50;;;17.70;64.20;;;;;;5060177;28;20037;-61
2021/05/31 11:06:44;;;;;;;1.42;1.30;;;17.60;64.50;;;;;;5060742;28;20016;-61
2021/05/31 11:09:11;;;;;;;1.65;1.45;;;17.50;64.60;;;;;;5066276;28;20110;-62
2021/05/31 11:11:49;;;;;;;1.65;1.38;;;17.40;64.80;;;;;;5066677;28;20028;-62
2021/05/31 11:14:16;;;;;;;1.50;1.45;;;17.30;64.70;;;;;;5065520;28;20084;-62
2021/05/31 11:17:19;;;;;;;1.75;1.65;;;17.30;64.60;;;;;;5058954;28;20112;-61
2021/05/31 11:19:49;;;;;;;1.67;1.58;;;17.30;64.70;;;;;;5060528;28;20041;-62
2021/05/31 11:22:15;;;;;;;1.45;1.35;;;17.30;64.80;;;;;;5064859;28;20507;-61
2021/05/31 11:24:48;;;;;;;0.85;0.85;;;17.30;64.70;;;;;;5067228;28;20380;-62
2021/05/31 11:27:14;;;;;;;1.33;1.25;;;17.30;64.50;;;;;;5061529;28;20044;-62
2021/05/31 11:29:39;;;;;;;1.20;1.20;;;17.30;64.50;;;;;;5059913;28;20059;-65
2021/05/31 11:32:06;;;;;;;1.20;1.20;;;17.30;64.50;;;;;;5063892;28;20032;-61
2021/05/31 11:34:32;;;;;;;1.25;1.25;;;17.30;64.60;;;;;;5064678;28;20032;-61
2021/05/31 11:37:00;;;;;;;1.00;1.00;;;17.40;64.30;;;;;;5056200;28;20029;-65
2021/05/31 11:39:33;;;;;;;0.90;0.90;;;17.40;64.00;;;;;;5059720;28;20099;-63
2021/05/31 11:41:59;;;;;;;1.15;1.08;;;17.40;63.80;;;;;;5062291;28;20500;-64
2021/05/31 11:44:31;;;;;;;0.93;0.93;;;17.50;63.50;;;;;;5068203;28;20114;-65
2021/05/31 11:47:02;;;;;;;1.27;1.25;;;17.50;63.40;;;;;;5059645;28;20048;-64
2021/05/31 11:49:29;;;;;;;;;;;17.50;63.80;;;;;;5065283;28;20119;-64
2021/05/31 11:51:57;;;;;;;0.88;0.88;;;17.50;63.90;;;;;;5062068;28;19980;-64
2021/05/31 11:54:24;;;;;;;1.00;0.90;;;17.50;63.80;;;;;;5061733;28;20030;-63
2021/05/31 11:56:49;;;;;;;0.80;0.80;;;17.50;63.70;;;;;;5059284;28;20028;-65
2021/05/31 11:59:16;;;;;;;0.80;0.80;;;17.50;63.30;;;;;;5054716;28;20031;-63
2021/05/31 12:01:50;;;;;;;1.00;1.00;;;17.50;63.30;;;;;;5058255;28;20038;-62
2021/05/31 12:04:16;;;;;;;0.88;0.85;;;17.50;63.40;;;;;;5063666;28;20028;-61
2021/05/31 12:06:41;;;;;;;1.00;0.93;;;17.40;63.40;;;;;;5066223;28;20541;-64
2021/05/31 12:09:17;;;;;;;1.10;1.10;;;17.40;63.60;;;;;;5063844;28;20484;-61
2021/05/31 12:11:43;;;;;;;0.75;0.75;;;17.40;63.90;;;;;;5064109;28;20037;-63
2021/05/31 12:14:08;;;;;;;0.98;0.98;;;17.40;64.70;;;;;;5061091;28;20039;-63
2021/05/31 12:16:35;;;;;;;0.93;0.93;;;17.30;63.70;;;;;;5062823;28;20025;-62
2021/05/31 12:19:01;;;;;;;1.80;1.27;;;17.30;63.80;;;;;;5061052;28;20036;-62
2021/05/31 12:21:26;;;;;;;0.80;0.80;;;17.20;63.70;;;;;;5063437;28;20040;-61
2021/05/31 12:23:52;;;;;;;0.90;0.90;;;17.20;63.90;;;;;;5062462;28;20037;-62
2021/05/31 12:26:22;;;;;;;1.00;1.00;;;17.20;64.00;;;;;;5066737;28;20043;-61
2021/05/31 12:28:52;;;;;;;0.98;0.98;;;17.20;64.10;;;;;;5061015;28;20120;-62
2021/05/31 12:31:19;;;;;;;0.98;0.98;;;17.20;63.80;;;;;;5057109;28;20656;-62
2021/05/31 12:33:45;;;;;;;0.95;0.95;;;17.30;63.90;;;;;;5063999;28;20016;-62
2021/05/31 12:36:11;;;;;;;0.85;0.82;;;17.30;63.40;;;;;;5063344;28;20048;-62
2021/05/31 12:38:39;;;;;;;0.90;0.90;;;17.30;63.40;;;;;;5064551;28;20029;-62
2021/05/31 12:41:05;;;;;;;1.55;0.90;;;17.30;63.70;;;;;;5062495;28;20194;-62
2021/05/31 12:43:36;;;;;;;1.10;1.10;;;17.30;64.20;;;;;;5059373;28;20039;-62
2021/05/31 12:46:02;;;;;;;1.20;1.10;;;17.30;64.60;;;;;;5059622;28;20039;-63
2021/05/31 12:48:28;;;;;;;1.00;1.00;;;17.20;64.70;;;;;;5060376;28;20047;-63
2021/05/31 12:51:12;;;;;;;1.70;1.23;;;17.20;65.00;;;;;;5065874;28;20115;-63
2021/05/31 12:53:39;;;;;;;1.10;1.00;;;17.20;65.00;;;;;;5062110;28;20029;-64
2021/05/31 12:56:05;;;;;;;1.13;1.10;;;17.10;65.10;;;;;;5057142;28;20114;-63
2021/05/31 12:58:32;;;;;;;0.73;0.73;;;17.10;65.40;;;;;;5065535;28;20080;-61
2021/05/31 13:00:58;;;;;;;1.00;0.90;;;17.10;65.60;;;;;;5064290;28;20546;-62
2021/05/31 13:03:33;;;;;;;0.75;0.75;;;17.00;65.80;;;;;;5064057;28;20132;-65
2021/05/31 13:06:00;;;;;;;1.20;1.10;;;17.00;66.10;;;;;;5067760;28;20056;-64
2021/05/31 13:08:37;;;;;;;1.38;1.27;;;17.00;65.90;;;;;;5067131;28;20035;-59
2021/05/31 13:11:03;;;;;;;0.93;0.93;;;17.00;66.10;;;;;;5062508;28;20067;-60
2021/05/31 13:13:34;;;;;;;0.70;0.70;;;17.00;66.00;;;;;;5068284;28;20075;-59
2021/05/31 13:16:03;;;;;;;1.20;0.98;;;17.00;65.70;;;;;;5066449;28;20070;-60